sensor_id;sensor_type;location;lat;lon;timestamp;pressure;altitude;pressure_sealevel;temperature;humidity
71791;BME280;59638;52.126;5.434;2023-07-28T00:01:11;100567.06;;;17.60;100.00
71791;BME280;59638;52.126;5.434;2023-07-28T00:03:38;100567.69;;;17.62;100.00
71791;BME280;59638;52.126;5.434;2023-07-28T00:06:05;100568.34;;;17.64;100.00
71791;BME280;59638;52.126;5.434;2023-07-28T00:08:31;100571.00;;;17.64;100.00
71791;BME280;59638;52.126;5.434;2023-07-28T00:10:58;100574.50;;;17.65;100.00
71791;BME280;59638;52.126;5.434;2023-07-28T00:13:24;100573.69;;;17.64;100.00
71791;BME280;59638;52.126;5.434;2023-07-28T00:15:50;100572.47;;;17.67;100.00
71791;BME280;59638;52.126;5.434;2023-07-28T00:18:17;100567.94;;;17.67;100.00
71791;BME280;59638;52.126;5.434;2023-07-28T00:20:44;100566.31;;;17.66;100.00
71791;BME280;59638;52.126;5.434;2023-07-28T00:23:11;100553.97;;;17.65;100.00
71791;BME280;59638;52.126;5.434;2023-07-28T00:25:37;100554.81;;;17.66;100.00
71791;BME280;59638;52.126;5.434;2023-07-28T00:28:04;100553.97;;;17.65;100.00
71791;BME280;59638;52.126;5.434;2023-07-28T00:30:30;100556.44;;;17.67;100.00
71791;BME280;59638;52.126;5.434;2023-07-28T00:32:57;100553.16;;;17.65;100.00
71791;BME280;59638;52.126;5.434;2023-07-28T00:35:24;100550.28;;;17.66;100.00
71791;BME280;59638;52.126;5.434;2023-07-28T00:37:50;100551.13;;;17.67;100.00
71791;BME280;59638;52.126;5.434;2023-07-28T00:40:17;100552.34;;;17.64;100.00
71791;BME280;59638;52.126;5.434;2023-07-28T00:42:43;100555.19;;;17.63;100.00
71791;BME280;59638;52.126;5.434;2023-07-28T00:45:10;100552.53;;;17.63;100.00
71791;BME280;59638;52.126;5.434;2023-07-28T00:47:36;100559.31;;;17.65;100.00
71791;BME280;59638;52.126;5.434;2023-07-28T00:50:03;100558.28;;;17.66;100.00
71791;BME280;59638;52.126;5.434;2023-07-28T00:52:30;100557.28;;;17.67;100.00
71791;BME280;59638;52.126;5.434;2023-07-28T00:54:57;100551.94;;;17.67;100.00
71791;BME280;59638;52.126;5.434;2023-07-28T00:57:23;100551.94;;;17.67;100.00
71791;BME280;59638;52.126;5.434;2023-07-28T00:59:50;100547.81;;;17.65;100.00
71791;BME280;59638;52.126;5.434;2023-07-28T01:02:17;100555.63;;;17.66;100.00
71791;BME280;59638;52.126;5.434;2023-07-28T01:04:44;100552.34;;;17.64;100.00
71791;BME280;59638;52.126;5.434;2023-07-28T01:07:16;100553.97;;;17.65;100.00
71791;BME280;59638;52.126;5.434;2023-07-28T01:10:08;100559.31;;;17.65;100.00
71791;BME280;59638;52.126;5.434;2023-07-28T01:12:36;100569.16;;;17.65;100.00
71791;BME280;59638;52.126;5.434;2023-07-28T01:15:03;100559.31;;;17.65;100.00
71791;BME280;59638;52.126;5.434;2023-07-28T01:17:30;100564.84;;;17.64;100.00
71791;BME280;59638;52.126;5.434;2023-07-28T01:19:56;100571.66;;;17.66;100.00
71791;BME280;59638;52.126;5.434;2023-07-28T01:27:50;100563.44;;;17.68;100.00
71791;BME280;59638;52.126;5.434;2023-07-28T01:30:18;100567.94;;;17.67;100.00
71791;BME280;59638;52.126;5.434;2023-07-28T01:32:47;100569.59;;;17.68;100.00
71791;BME280;59638;52.126;5.434;2023-07-28T01:35:15;100582.31;;;17.66;100.00
71791;BME280;59638;52.126;5.434;2023-07-28T01:37:41;100576.34;;;17.64;100.00
71791;BME280;59638;52.126;5.434;2023-07-28T01:40:08;100581.88;;;17.63;100.00
71791;BME280;59638;52.126;5.434;2023-07-28T01:42:34;100580.88;;;17.64;100.00
71791;BME280;59638;52.126;5.434;2023-07-28T01:45:01;100580.66;;;17.65;100.00
71791;BME280;59638;52.126;5.434;2023-07-28T01:47:27;100579.03;;;17.64;100.00
71791;BME280;59638;52.126;5.434;2023-07-28T01:49:54;100581.03;;;17.62;100.00
71791;BME280;59638;52.126;5.434;2023-07-28T01:52:20;100574.50;;;17.65;100.00
71791;BME280;59638;52.126;5.434;2023-07-28T01:54:48;100573.69;;;17.64;100.00
71791;BME280;59638;52.126;5.434;2023-07-28T01:57:16;100572.03;;;17.63;100.00
71791;BME280;59638;52.126;5.434;2023-07-28T01:59:43;100566.69;;;17.63;100.00
71791;BME280;59638;52.126;5.434;2023-07-28T02:02:10;100570.34;;;17.62;100.00
71791;BME280;59638;52.126;5.434;2023-07-28T02:04:36;100578.19;;;17.64;100.00
71791;BME280;59638;52.126;5.434;2023-07-28T02:07:03;100579.84;;;17.65;100.00
71791;BME280;59638;52.126;5.434;2023-07-28T02:09:29;100580.03;;;17.63;100.00
71791;BME280;59638;52.126;5.434;2023-07-28T02:11:56;100575.69;;;17.62;100.00
71791;BME280;59638;52.126;5.434;2023-07-28T02:14:22;100580.41;;;17.60;100.00
71791;BME280;59638;52.126;5.434;2023-07-28T02:16:49;100581.63;;;17.58;100.00
71791;BME280;59638;52.126;5.434;2023-07-28T02:19:15;100580.41;;;17.60;100.00
71791;BME280;59638;52.126;5.434;2023-07-28T02:21:42;100578.97;;;17.58;100.00
71791;BME280;59638;52.126;5.434;2023-07-28T02:24:08;100578.97;;;17.58;100.00
71791;BME280;59638;52.126;5.434;2023-07-28T02:26:34;100567.47;;;17.57;100.00
71791;BME280;59638;52.126;5.434;2023-07-28T02:29:01;100576.47;;;17.56;100.00
71791;BME280;59638;52.126;5.434;2023-07-28T02:31:28;100574.44;;;17.58;100.00
71791;BME280;59638;52.126;5.434;2023-07-28T02:33:55;100572.78;;;17.57;100.00
71791;BME280;59638;52.126;5.434;2023-07-28T02:36:21;100571.16;;;17.56;100.00
71791;BME280;59638;52.126;5.434;2023-07-28T02:38:48;100560.47;;;17.56;100.00
71791;BME280;59638;52.126;5.434;2023-07-28T02:41:14;100570.94;;;17.58;100.00
71791;BME280;59638;52.126;5.434;2023-07-28T02:43:40;100572.78;;;17.57;100.00
71791;BME280;59638;52.126;5.434;2023-07-28T02:46:07;100576.09;;;17.59;100.00
71791;BME280;59638;52.126;5.434;2023-07-28T02:48:33;100584.09;;;17.59;100.00
71791;BME280;59638;52.126;5.434;2023-07-28T02:51:00;100585.94;;;17.59;100.00
71791;BME280;59638;52.126;5.434;2023-07-28T02:53:26;100585.13;;;17.58;100.00
71791;BME280;59638;52.126;5.434;2023-07-28T02:55:53;100580.41;;;17.60;100.00
71791;BME280;59638;52.126;5.434;2023-07-28T02:58:20;100586.75;;;17.59;100.00
71791;BME280;59638;52.126;5.434;2023-07-28T03:00:46;100589.44;;;17.59;100.00
71791;BME280;59638;52.126;5.434;2023-07-28T03:03:13;100588.41;;;17.60;100.00
71791;BME280;59638;52.126;5.434;2023-07-28T03:05:40;100590.06;;;17.61;100.00
71791;BME280;59638;52.126;5.434;2023-07-28T03:08:06;100594.56;;;17.61;100.00
71791;BME280;59638;52.126;5.434;2023-07-28T03:10:33;100598.06;;;17.61;100.00
71791;BME280;59638;52.126;5.434;2023-07-28T03:12:59;100595.25;;;17.63;100.00
71791;BME280;59638;52.126;5.434;2023-07-28T03:15:25;100597.06;;;17.62;100.00
71791;BME280;59638;52.126;5.434;2023-07-28T03:17:52;100606.06;;;17.61;100.00
71791;BME280;59638;52.126;5.434;2023-07-28T03:20:21;100606.06;;;17.61;100.00
71791;BME280;59638;52.126;5.434;2023-07-28T03:22:47;100605.06;;;17.62;100.00
71791;BME280;59638;52.126;5.434;2023-07-28T03:25:14;100610.41;;;17.62;100.00
71791;BME280;59638;52.126;5.434;2023-07-28T03:27:40;100606.06;;;17.61;100.00
71791;BME280;59638;52.126;5.434;2023-07-28T03:30:07;100608.75;;;17.61;100.00
71791;BME280;59638;52.126;5.434;2023-07-28T03:32:37;100611.41;;;17.61;100.00
71791;BME280;59638;52.126;5.434;2023-07-28T03:35:04;100612.25;;;17.62;100.00
71791;BME280;59638;52.126;5.434;2023-07-28T03:37:32;100613.06;;;17.62;100.00
71791;BME280;59638;52.126;5.434;2023-07-28T03:39:58;100613.91;;;17.63;100.00
71791;BME280;59638;52.126;5.434;2023-07-28T03:42:25;100609.41;;;17.63;100.00
71791;BME280;59638;52.126;5.434;2023-07-28T03:44:51;100620.91;;;17.64;100.00
71791;BME280;59638;52.126;5.434;2023-07-28T03:47:19;100620.09;;;17.63;100.00
71791;BME280;59638;52.126;5.434;2023-07-28T03:49:45;100624.59;;;17.63;100.00
71791;BME280;59638;52.126;5.434;2023-07-28T03:52:12;100621.72;;;17.64;100.00
71791;BME280;59638;52.126;5.434;2023-07-28T03:54:38;100629.75;;;17.64;100.00
71791;BME280;59638;52.126;5.434;2023-07-28T03:57:05;100625.03;;;17.66;100.00
71791;BME280;59638;52.126;5.434;2023-07-28T03:59:31;100619.69;;;17.66;100.00
71791;BME280;59638;52.126;5.434;2023-07-28T04:01:58;100623.38;;;17.65;100.00
71791;BME280;59638;52.126;5.434;2023-07-28T04:04:24;100619.69;;;17.66;100.00
71791;BME280;59638;52.126;5.434;2023-07-28T04:06:51;100620.50;;;17.67;100.00
71791;BME280;59638;52.126;5.434;2023-07-28T04:09:19;100626.69;;;17.67;100.00
71791;BME280;59638;52.126;5.434;2023-07-28T04:11:45;100621.34;;;17.67;100.00
71791;BME280;59638;52.126;5.434;2023-07-28T04:14:12;100617.66;;;17.68;100.00
71791;BME280;59638;52.126;5.434;2023-07-28T04:16:40;100635.34;;;17.70;100.00
71791;BME280;59638;52.126;5.434;2023-07-28T04:19:07;100622.00;;;17.70;100.00
71791;BME280;59638;52.126;5.434;2023-07-28T04:21:33;100627.19;;;17.71;100.00
71791;BME280;59638;52.126;5.434;2023-07-28T04:23:59;100626.31;;;17.71;100.00
71791;BME280;59638;52.126;5.434;2023-07-28T04:26:26;100621.63;;;17.73;100.00
71791;BME280;59638;52.126;5.434;2023-07-28T04:28:52;100624.94;;;17.75;100.00
71791;BME280;59638;52.126;5.434;2023-07-28T04:31:19;100617.94;;;17.74;100.00
71791;BME280;59638;52.126;5.434;2023-07-28T04:33:45;100625.97;;;17.74;100.00
71791;BME280;59638;52.126;5.434;2023-07-28T04:36:12;100625.97;;;17.74;100.00
71791;BME280;59638;52.126;5.434;2023-07-28T04:38:38;100637.66;;;17.73;100.00
71791;BME280;59638;52.126;5.434;2023-07-28T04:41:04;100638.47;;;17.73;100.00
71791;BME280;59638;52.126;5.434;2023-07-28T04:43:31;100636.63;;;17.74;100.00
71791;BME280;59638;52.126;5.434;2023-07-28T04:45:57;100639.94;;;17.76;100.00
71791;BME280;59638;52.126;5.434;2023-07-28T04:48:24;100641.63;;;17.77;100.00
71791;BME280;59638;52.126;5.434;2023-07-28T04:50:50;100637.91;;;17.78;100.00
71791;BME280;59638;52.126;5.434;2023-07-28T04:53:17;100632.59;;;17.78;100.00
71791;BME280;59638;52.126;5.434;2023-07-28T04:55:43;100642.25;;;17.79;100.00
71791;BME280;59638;52.126;5.434;2023-07-28T04:58:10;100648.22;;;17.81;100.00
71791;BME280;59638;52.126;5.434;2023-07-28T05:00:36;100649.03;;;17.81;100.00
71791;BME280;59638;52.126;5.434;2023-07-28T05:03:03;100651.91;;;17.80;100.00
71791;BME280;59638;52.126;5.434;2023-07-28T05:05:29;100645.72;;;17.79;100.00
71791;BME280;59638;52.126;5.434;2023-07-28T05:07:56;100641.22;;;17.80;100.00
71791;BME280;59638;52.126;5.434;2023-07-28T05:10:22;100646.19;;;17.83;100.00
71791;BME280;59638;52.126;5.434;2023-07-28T05:12:49;100653.19;;;17.84;100.00
71791;BME280;59638;52.126;5.434;2023-07-28T05:15:16;100650.13;;;17.87;100.00
71791;BME280;59638;52.126;5.434;2023-07-28T05:17:42;100645.03;;;17.92;100.00
71791;BME280;59638;52.126;5.434;2023-07-28T05:20:09;100647.97;;;17.97;100.00
71791;BME280;59638;52.126;5.434;2023-07-28T05:22:35;100647.59;;;18.00;100.00
71791;BME280;59638;52.126;5.434;2023-07-28T05:25:02;100643.88;;;18.01;100.00
71791;BME280;59638;52.126;5.434;2023-07-28T05:27:28;100655.41;;;18.02;100.00
71791;BME280;59638;52.126;5.434;2023-07-28T05:29:55;100647.38;;;18.02;100.00
71791;BME280;59638;52.126;5.434;2023-07-28T05:32:21;100644.16;;;18.06;100.00
71791;BME280;59638;52.126;5.434;2023-07-28T05:34:48;100644.00;;;18.14;100.00
71791;BME280;59638;52.126;5.434;2023-07-28T05:37:14;100640.78;;;18.19;100.00
71791;BME280;59638;52.126;5.434;2023-07-28T05:39:41;100646.94;;;18.19;100.00
71791;BME280;59638;52.126;5.434;2023-07-28T05:42:07;100647.34;;;18.16;100.00
71791;BME280;59638;52.126;5.434;2023-07-28T05:44:34;100647.34;;;18.16;100.00
71791;BME280;59638;52.126;5.434;2023-07-28T05:47:00;100650.63;;;18.18;100.00
71791;BME280;59638;52.126;5.434;2023-07-28T05:49:27;100653.56;;;18.24;100.00
71791;BME280;59638;52.126;5.434;2023-07-28T05:51:53;100660.91;;;18.21;100.00
71791;BME280;59638;52.126;5.434;2023-07-28T05:54:20;100662.59;;;18.23;100.00
71791;BME280;59638;52.126;5.434;2023-07-28T05:56:46;100659.34;;;18.27;100.00
71791;BME280;59638;52.126;5.434;2023-07-28T05:59:13;100666.38;;;18.35;100.00
71791;BME280;59638;52.126;5.434;2023-07-28T06:01:39;100668.06;;;18.36;100.00
71791;BME280;59638;52.126;5.434;2023-07-28T06:04:06;100667.03;;;18.37;100.00
71791;BME280;59638;52.126;5.434;2023-07-28T06:06:33;100677.53;;;18.38;100.00
71791;BME280;59638;52.126;5.434;2023-07-28T06:08:59;100676.06;;;18.36;100.00
71791;BME280;59638;52.126;5.434;2023-07-28T06:11:25;100673.41;;;18.36;100.00
71791;BME280;59638;52.126;5.434;2023-07-28T06:13:52;100676.06;;;18.36;100.00
71791;BME280;59638;52.126;5.434;2023-07-28T06:16:19;100675.06;;;18.37;100.00
71791;BME280;59638;52.126;5.434;2023-07-28T06:18:45;100679.22;;;18.46;100.00
71791;BME280;59638;52.126;5.434;2023-07-28T06:21:12;100672.72;;;18.55;100.00
71791;BME280;59638;52.126;5.434;2023-07-28T06:23:38;100670.41;;;18.73;100.00
71791;BME280;59638;52.126;5.434;2023-07-28T06:26:05;100676.34;;;18.97;100.00
71791;BME280;59638;52.126;5.434;2023-07-28T06:28:31;100682.97;;;19.08;100.00
71791;BME280;59638;52.126;5.434;2023-07-28T06:30:58;100687.50;;;19.07;100.00
71791;BME280;59638;52.126;5.434;2023-07-28T06:33:25;100688.28;;;19.01;100.00
71791;BME280;59638;52.126;5.434;2023-07-28T06:35:52;100683.97;;;19.00;100.00
71791;BME280;59638;52.126;5.434;2023-07-28T06:38:18;100689.97;;;19.02;100.00
71791;BME280;59638;52.126;5.434;2023-07-28T06:40:45;100695.31;;;19.02;100.00
71791;BME280;59638;52.126;5.434;2023-07-28T06:43:12;100697.50;;;18.92;100.00
71791;BME280;59638;52.126;5.434;2023-07-28T06:45:39;100703.44;;;18.87;100.00
71791;BME280;59638;52.126;5.434;2023-07-28T06:48:05;100710.38;;;18.82;100.00
71791;BME280;59638;52.126;5.434;2023-07-28T06:50:32;100715.72;;;18.82;100.00
71791;BME280;59638;52.126;5.434;2023-07-28T06:52:58;100724.41;;;18.84;100.00
71791;BME280;59638;52.126;5.434;2023-07-28T06:55:25;100721.06;;;18.82;100.00
71791;BME280;59638;52.126;5.434;2023-07-28T06:57:51;100724.16;;;18.79;100.00
71791;BME280;59638;52.126;5.434;2023-07-28T07:00:18;100728.88;;;18.77;100.00
71791;BME280;59638;52.126;5.434;2023-07-28T07:02:44;100737.53;;;18.79;100.00
71791;BME280;59638;52.126;5.434;2023-07-28T07:05:11;100730.72;;;18.76;100.00
71791;BME280;59638;52.126;5.434;2023-07-28T07:07:39;100733.56;;;18.74;100.00
71791;BME280;59638;52.126;5.434;2023-07-28T07:10:06;100736.25;;;18.74;100.00
71791;BME280;59638;52.126;5.434;2023-07-28T07:12:32;100734.22;;;18.77;100.00
71791;BME280;59638;52.126;5.434;2023-07-28T07:14:59;100732.78;;;18.81;100.00
71791;BME280;59638;52.126;5.434;2023-07-28T07:17:25;100734.69;;;18.87;100.00
71791;BME280;59638;52.126;5.434;2023-07-28T07:19:52;100740.50;;;18.90;100.00
71791;BME280;59638;52.126;5.434;2023-07-28T07:22:18;100736.34;;;18.88;100.00
71791;BME280;59638;52.126;5.434;2023-07-28T07:24:45;100741.69;;;18.88;100.00
71791;BME280;59638;52.126;5.434;2023-07-28T07:27:11;100738.81;;;18.83;100.00
71791;BME280;59638;52.126;5.434;2023-07-28T07:29:38;100749.50;;;18.83;100.00
71791;BME280;59638;52.126;5.434;2023-07-28T07:32:06;100746.66;;;18.91;100.00
71791;BME280;59638;52.126;5.434;2023-07-28T07:34:33;100749.59;;;18.96;100.00
71791;BME280;59638;52.126;5.434;2023-07-28T07:37:00;100752.91;;;18.98;100.00
71791;BME280;59638;52.126;5.434;2023-07-28T07:39:27;100760.28;;;18.96;100.00
71791;BME280;59638;52.126;5.434;2023-07-28T07:41:54;100761.91;;;18.90;100.00
71791;BME280;59638;52.126;5.434;2023-07-28T07:44:20;100763.97;;;18.95;100.00
71791;BME280;59638;52.126;5.434;2023-07-28T07:46:47;100763.19;;;19.01;100.00
71791;BME280;59638;52.126;5.434;2023-07-28T07:49:13;100775.16;;;19.05;100.00
71791;BME280;59638;52.126;5.434;2023-07-28T07:51:40;100769.38;;;19.01;100.00
71791;BME280;59638;52.126;5.434;2023-07-28T07:54:07;100780.13;;;19.08;100.00
71791;BME280;59638;52.126;5.434;2023-07-28T07:56:33;100774.22;;;19.19;100.00
71791;BME280;59638;52.126;5.434;2023-07-28T07:59:00;100772.72;;;19.38;100.00
71791;BME280;59638;52.126;5.434;2023-07-28T08:01:26;100771.34;;;19.49;100.00
71791;BME280;59638;52.126;5.434;2023-07-28T08:03:53;100774.28;;;19.61;100.00
71791;BME280;59638;52.126;5.434;2023-07-28T08:06:19;100780.78;;;19.79;100.00
71791;BME280;59638;52.126;5.434;2023-07-28T08:08:46;100778.09;;;19.79;100.00
71791;BME280;59638;52.126;5.434;2023-07-28T08:11:12;100781.41;;;19.81;100.00
71791;BME280;59638;52.126;5.434;2023-07-28T08:13:39;100785.97;;;19.88;100.00
71791;BME280;59638;52.126;5.434;2023-07-28T08:16:05;100778.00;;;20.07;100.00
71791;BME280;59638;52.126;5.434;2023-07-28T08:18:32;100787.13;;;20.40;100.00
71791;BME280;59638;52.126;5.434;2023-07-28T08:20:59;100782.88;;;20.65;100.00
71791;BME280;59638;52.126;5.434;2023-07-28T08:23:25;100783.72;;;20.85;100.00
71791;BME280;59638;52.126;5.434;2023-07-28T08:25:52;100780.81;;;21.20;100.00
71791;BME280;59638;52.126;5.434;2023-07-28T08:28:21;100788.41;;;21.50;100.00
71791;BME280;59638;52.126;5.434;2023-07-28T08:30:55;100786.66;;;21.82;100.00
71791;BME280;59638;52.126;5.434;2023-07-28T08:33:22;100785.28;;;22.17;100.00
71791;BME280;59638;52.126;5.434;2023-07-28T08:35:49;100795.19;;;22.55;100.00
71791;BME280;59638;52.126;5.434;2023-07-28T08:38:16;100793.13;;;22.50;100.00
71791;BME280;59638;52.126;5.434;2023-07-28T08:40:44;100797.41;;;22.65;97.94
71791;BME280;59638;52.126;5.434;2023-07-28T08:43:10;100801.25;;;22.06;100.00
71791;BME280;59638;52.126;5.434;2023-07-28T08:45:37;100810.09;;;21.61;100.00
71791;BME280;59638;52.126;5.434;2023-07-28T08:48:04;100802.66;;;21.57;100.00
71791;BME280;59638;52.126;5.434;2023-07-28T08:50:31;100798.47;;;21.74;100.00
71791;BME280;59638;52.126;5.434;2023-07-28T08:52:57;100803.53;;;22.09;100.00
71791;BME280;59638;52.126;5.434;2023-07-28T08:55:25;100805.66;;;21.87;100.00
71791;BME280;59638;52.126;5.434;2023-07-28T08:57:52;100808.44;;;21.67;100.00
71791;BME280;59638;52.126;5.434;2023-07-28T09:00:19;100804.72;;;21.61;100.00
71791;BME280;59638;52.126;5.434;2023-07-28T09:02:48;100809.63;;;21.71;100.00
71791;BME280;59638;52.126;5.434;2023-07-28T09:05:21;100804.28;;;21.64;100.00
71791;BME280;59638;52.126;5.434;2023-07-28T09:07:50;100802.63;;;21.70;100.00
71791;BME280;59638;52.126;5.434;2023-07-28T09:10:18;100803.81;;;21.81;100.00
71791;BME280;59638;52.126;5.434;2023-07-28T09:12:48;100805.31;;;21.70;100.00
71791;BME280;59638;52.126;5.434;2023-07-28T09:15:15;100810.47;;;21.71;100.00
71791;BME280;59638;52.126;5.434;2023-07-28T09:17:45;100810.41;;;21.85;100.00
71791;BME280;59638;52.126;5.434;2023-07-28T09:20:13;100810.03;;;21.81;100.00
71791;BME280;59638;52.126;5.434;2023-07-28T09:22:44;100811.56;;;22.15;100.00
71791;BME280;59638;52.126;5.434;2023-07-28T09:25:12;100810.81;;;22.71;96.19
71791;BME280;59638;52.126;5.434;2023-07-28T09:27:39;100813.53;;;22.96;96.53
71791;BME280;59638;52.126;5.434;2023-07-28T09:30:06;100813.22;;;22.86;93.36
71791;BME280;59638;52.126;5.434;2023-07-28T09:32:33;100818.72;;;22.66;94.84
71791;BME280;59638;52.126;5.434;2023-07-28T09:35:12;100820.13;;;23.00;95.26
71791;BME280;59638;52.126;5.434;2023-07-28T09:37:40;100818.44;;;23.06;89.96
71791;BME280;59638;52.126;5.434;2023-07-28T09:40:09;100818.22;;;23.51;87.57
71791;BME280;59638;52.126;5.434;2023-07-28T09:42:39;100814.94;;;24.64;81.21
71791;BME280;59638;52.126;5.434;2023-07-28T09:45:07;100817.22;;;24.19;87.34
71791;BME280;59638;52.126;5.434;2023-07-28T09:47:55;100828.25;;;23.62;88.06
71791;BME280;59638;52.126;5.434;2023-07-28T09:50:26;100815.63;;;23.81;86.94
71791;BME280;59638;52.126;5.434;2023-07-28T09:52:58;100820.50;;;23.91;86.84
71791;BME280;59638;52.126;5.434;2023-07-28T09:55:28;100815.16;;;25.16;79.94
71791;BME280;59638;52.126;5.434;2023-07-28T09:57:55;100819.28;;;25.18;79.51
71791;BME280;59638;52.126;5.434;2023-07-28T10:00:23;100811.25;;;25.70;81.94
71791;BME280;59638;52.126;5.434;2023-07-28T10:02:50;100812.75;;;27.09;72.58
71791;BME280;59638;52.126;5.434;2023-07-28T10:05:17;100811.78;;;27.54;68.05
71791;BME280;59638;52.126;5.434;2023-07-28T10:07:44;100818.75;;;27.50;66.82
71791;BME280;59638;52.126;5.434;2023-07-28T10:10:14;100815.47;;;25.66;75.52
71791;BME280;59638;52.126;5.434;2023-07-28T10:12:42;100811.94;;;26.46;70.39
71791;BME280;59638;52.126;5.434;2023-07-28T10:15:13;100817.19;;;27.54;68.90
71791;BME280;59638;52.126;5.434;2023-07-28T10:17:47;100808.00;;;27.55;68.82
71791;BME280;59638;52.126;5.434;2023-07-28T10:20:27;100810.34;;;26.96;68.77
71791;BME280;59638;52.126;5.434;2023-07-28T10:22:54;100799.81;;;26.49;72.16
71791;BME280;59638;52.126;5.434;2023-07-28T10:25:27;100808.88;;;26.71;68.76
71791;BME280;59638;52.126;5.434;2023-07-28T10:27:54;100811.41;;;26.33;70.71
71791;BME280;59638;52.126;5.434;2023-07-28T10:30:21;100809.69;;;26.55;71.91
71791;BME280;59638;52.126;5.434;2023-07-28T10:32:49;100815.50;;;26.80;70.13
71791;BME280;59638;52.126;5.434;2023-07-28T10:37:45;100808.03;;;29.17;60.97
71791;BME280;59638;52.126;5.434;2023-07-28T10:40:27;100812.25;;;28.38;60.48
71791;BME280;59638;52.126;5.434;2023-07-28T10:42:55;100810.06;;;28.35;64.12
71791;BME280;59638;52.126;5.434;2023-07-28T10:45:24;100805.56;;;29.52;57.50
71791;BME280;59638;52.126;5.434;2023-07-28T10:47:52;100811.94;;;29.84;56.36
71791;BME280;59638;52.126;5.434;2023-07-28T10:50:19;100816.63;;;29.93;57.32
71791;BME280;59638;52.126;5.434;2023-07-28T10:52:46;100812.88;;;28.73;58.56
71791;BME280;59638;52.126;5.434;2023-07-28T10:55:20;100813.97;;;28.23;60.34
71791;BME280;59638;52.126;5.434;2023-07-28T10:57:48;100829.22;;;27.41;62.62
71791;BME280;59638;52.126;5.434;2023-07-28T11:00:17;100816.41;;;27.36;64.03
71791;BME280;59638;52.126;5.434;2023-07-28T11:02:49;100816.78;;;29.19;60.24
71791;BME280;59638;52.126;5.434;2023-07-28T11:07:49;100821.63;;;29.54;59.25
71791;BME280;59638;52.126;5.434;2023-07-28T11:10:15;100827.88;;;27.44;64.88
71791;BME280;59638;52.126;5.434;2023-07-28T11:12:44;100826.75;;;26.72;67.26
71791;BME280;59638;52.126;5.434;2023-07-28T11:15:13;100830.22;;;26.84;67.65
71791;BME280;59638;52.126;5.434;2023-07-28T11:17:45;100835.63;;;25.99;70.28
71791;BME280;59638;52.126;5.434;2023-07-28T11:20:16;100831.16;;;27.46;66.16
71791;BME280;59638;52.126;5.434;2023-07-28T11:22:52;100835.66;;;27.96;64.17
71791;BME280;59638;52.126;5.434;2023-07-28T11:25:19;100833.00;;;26.90;68.47
71791;BME280;59638;52.126;5.434;2023-07-28T11:27:47;100829.38;;;26.67;69.28
71791;BME280;59638;52.126;5.434;2023-07-28T11:30:15;100832.38;;;25.85;71.85
71791;BME280;59638;52.126;5.434;2023-07-28T11:32:44;100832.75;;;25.65;75.54
71791;BME280;59638;52.126;5.434;2023-07-28T11:35:12;100830.28;;;26.73;69.42
71791;BME280;59638;52.126;5.434;2023-07-28T11:37:42;100836.78;;;26.89;68.03
71791;BME280;59638;52.126;5.434;2023-07-28T11:40:09;100843.94;;;25.57;72.32
71791;BME280;59638;52.126;5.434;2023-07-28T11:42:47;100840.22;;;24.39;77.86
71791;BME280;59638;52.126;5.434;2023-07-28T11:45:16;100840.69;;;24.48;77.87
71791;BME280;59638;52.126;5.434;2023-07-28T11:48:00;100831.84;;;26.86;71.60
71791;BME280;59638;52.126;5.434;2023-07-28T11:50:29;100827.09;;;29.22;61.64
71791;BME280;59638;52.126;5.434;2023-07-28T11:52:59;100829.72;;;29.07;59.81
71791;BME280;59638;52.126;5.434;2023-07-28T11:55:25;100833.16;;;27.33;66.72
71791;BME280;59638;52.126;5.434;2023-07-28T11:57:53;100833.38;;;27.10;69.34
71791;BME280;59638;52.126;5.434;2023-07-28T12:00:29;100829.28;;;28.56;64.02
71791;BME280;59638;52.126;5.434;2023-07-28T12:03:10;100835.38;;;28.19;62.79
71791;BME280;59638;52.126;5.434;2023-07-28T12:05:39;100837.16;;;27.09;65.24
71791;BME280;59638;52.126;5.434;2023-07-28T12:08:33;100838.91;;;27.20;65.44
71791;BME280;59638;52.126;5.434;2023-07-28T12:11:00;100849.56;;;26.19;68.58
71791;BME280;59638;52.126;5.434;2023-07-28T12:13:30;100846.16;;;25.60;71.04
71791;BME280;59638;52.126;5.434;2023-07-28T12:15:58;100839.09;;;26.97;67.12
71791;BME280;59638;52.126;5.434;2023-07-28T12:18:29;100843.63;;;27.80;64.06
71791;BME280;59638;52.126;5.434;2023-07-28T12:20:59;100835.22;;;26.93;67.70
71791;BME280;59638;52.126;5.434;2023-07-28T12:23:26;100837.09;;;26.92;64.12
71791;BME280;59638;52.126;5.434;2023-07-28T12:25:55;100841.22;;;25.81;69.91
71791;BME280;59638;52.126;5.434;2023-07-28T12:28:24;100841.22;;;25.34;74.79
71791;BME280;59638;52.126;5.434;2023-07-28T12:30:52;100845.94;;;25.27;71.68
71791;BME280;59638;52.126;5.434;2023-07-28T12:33:22;100837.78;;;26.25;70.02
71791;BME280;59638;52.126;5.434;2023-07-28T12:35:49;100845.50;;;26.34;66.05
71791;BME280;59638;52.126;5.434;2023-07-28T12:38:18;100844.63;;;28.72;60.91
71791;BME280;59638;52.126;5.434;2023-07-28T12:40:48;100843.94;;;30.14;55.58
71791;BME280;59638;52.126;5.434;2023-07-28T12:43:17;100840.69;;;30.12;52.72
71791;BME280;59638;52.126;5.434;2023-07-28T12:45:47;100836.22;;;29.95;54.94
71791;BME280;59638;52.126;5.434;2023-07-28T12:48:16;100833.16;;;28.65;57.51
71791;BME280;59638;52.126;5.434;2023-07-28T12:50:45;100835.56;;;29.25;54.96
71791;BME280;59638;52.126;5.434;2023-07-28T12:53:13;100850.00;;;28.18;59.22
71791;BME280;59638;52.126;5.434;2023-07-28T12:55:43;100843.53;;;27.03;64.54